Time,TemperatureF,DewpointF,PressureIn,WindDirection,WindDirectionDegrees,WindSpeedMPH,WindSpeedGustMPH,Humidity,HourlyPrecipIn,Conditions,Clouds,dailyrainin,SolarRadiationWatts/m^2,SoftwareType,DateUTC
2013-09-10 00:02:00,57.0,53.5,29.70,NE,42,0.0,0.0,88,0.00,,,0.00,0.0,WeatherDisplay:10.37,2013-09-10 07:02:00,
2013-09-10 00:07:00,57.0,53.5,29.70,NE,42,0.0,0.0,88,0.00,,,0.00,0.0,WeatherDisplay:10.37,2013-09-10 07:07:00,
2013-09-10 00:12:00,57.0,53.8,29.70,NE,42,0.0,0.0,89,0.00,,,0.00,0.0,WeatherDisplay:10.37,2013-09-10 07:12:00,
2013-09-10 00:17:00,57.0,53.8,29.70,NE,42,0.0,0.0,89,0.00,,,0.00,0.0,WeatherDisplay:10.37,2013-09-10 07:17:00,
2013-09-10 00:22:00,56.9,53.7,29.70,NE,42,0.0,0.0,89,0.00,,,0.00,0.0,WeatherDisplay:10.37,2013-09-10 07:22:00,
2013-09-10 00:27:00,56.8,53.6,29.70,NE,42,0.1,1.2,89,0.00,,,0.00,0.0,WeatherDisplay:10.37,2013-09-10 07:27:00,
2013-09-10 00:32:00,56.7,53.5,29.70,NE,42,0.0,0.0,89,0.00,,,0.00,0.0,WeatherDisplay:10.37,2013-09-10 07:32:00,
2013-09-10 00:37:00,56.7,53.5,29.71,NE,42,0.0,0.0,89,0.00,,,0.00,0.0,WeatherDisplay:10.37,2013-09-10 07:37:00,
2013-09-10 00:42:00,56.6,53.4,29.71,NE,42,0.0,0.0,89,0.00,,,0.00,0.0,WeatherDisplay:10.37,2013-09-10 07:42:00,
2013-09-10 00:47:00,56.5,53.6,29.70,NE,42,0.0,0.0,90,0.00,,,0.00,0.0,WeatherDisplay:10.37,2013-09-10 07:47:00,
2013-09-10 00:52:00,56.4,53.2,29.70,NE,42,0.0,0.0,89,0.00,,,0.00,0.0,WeatherDisplay:10.37,2013-09-10 07:52:00,
2013-09-10 00:57:00,56.4,53.5,29.71,NE,42,0.0,0.0,90,0.00,,,0.00,0.0,WeatherDisplay:10.37,2013-09-10 07:57:00,
2013-09-10 01:02:00,56.4,53.2,29.70,NE,42,0.0,0.0,89,0.00,,,0.00,0.0,WeatherDisplay:10.37,2013-09-10 08:02:00,
2013-09-10 01:07:00,56.3,53.1,29.71,NE,42,0.0,0.0,89,0.00,,,0.00,0.0,WeatherDisplay:10.37,2013-09-10 08:07:00,
2013-09-10 01:12:00,56.3,53.1,29.71,NE,42,0.0,0.0,89,0.00,,,0.00,0.0,WeatherDisplay:10.37,2013-09-10 08:12:00,
2013-09-10 01:17:00,56.2,53.0,29.71,NE,42,0.0,0.0,89,0.00,,,0.00,0.0,WeatherDisplay:10.37,2013-09-10 08:17:00,
2013-09-10 01:22:00,56.2,53.0,29.71,NE,42,0.0,0.0,89,0.00,,,0.00,0.0,WeatherDisplay:10.37,2013-09-10 08:22:00,
2013-09-10 01:27:00,56.1,53.2,29.71,NE,42,0.0,0.0,90,0.00,,,0.00,0.0,WeatherDisplay:10.37,2013-09-10 08:27:00,
2013-09-10 01:32:00,56.1,53.2,29.71,NE,42,0.0,0.0,90,0.00,,,0.00,0.0,WeatherDisplay:10.37,2013-09-10 08:32:00,
2013-09-10 01:37:00,56.2,53.3,29.71,NE,42,1.2,2.3,90,0.00,,,0.00,0.0,WeatherDisplay:10.37,2013-09-10 08:37:00,
2013-09-10 01:42:00,56.3,53.4,29.71,NE,42,0.0,0.0,90,0.00,,,0.00,0.0,WeatherDisplay:10.37,2013-09-10 08:42:00,
2013-09-10 01:47:00,56.3,53.4,29.71,NE,42,0.0,0.0,90,0.00,,,0.00,0.0,WeatherDisplay:10.37,2013-09-10 08:47:00,
2013-09-10 01:52:00,56.1,53.2,29.71,NE,42,0.0,0.0,90,0.00,,,0.00,0.0,WeatherDisplay:10.37,2013-09-10 08:52:00,
2013-09-10 01:57:00,55.9,53.0,29.71,NE,42,0.0,0.0,90,0.00,,,0.00,0.0,WeatherDisplay:10.37,2013-09-10 08:57:00,
2013-09-10 02:02:00,55.8,52.9,29.71,NE,42,0.0,0.0,90,0.00,,,0.00,0.0,WeatherDisplay:10.37,2013-09-10 09:02:00,
2013-09-10 02:07:00,55.8,52.9,29.71,NE,42,0.0,0.0,90,0.00,,,0.00,0.0,WeatherDisplay:10.37,2013-09-10 09:07:00,
2013-09-10 02:12:00,55.8,52.9,29.71,NE,42,0.0,0.0,90,0.00,,,0.00,0.0,WeatherDisplay:10.37,2013-09-10 09:12:00,
2013-09-10 02:17:00,55.7,53.1,29.71,NE,42,0.0,0.0,91,0.00,,,0.00,0.0,WeatherDisplay:10.37,2013-09-10 09:17:00,
2013-09-10 02:22:00,55.5,52.9,29.71,NE,42,0.0,0.0,91,0.00,,,0.00,0.0,WeatherDisplay:10.37,2013-09-10 09:22:00,
2013-09-10 02:27:00,55.3,52.7,29.72,NE,42,0.0,0.0,91,0.00,,,0.00,0.0,WeatherDisplay:10.37,2013-09-10 09:27:00,
2013-09-10 02:32:00,55.3,52.7,29.72,NE,42,0.0,0.0,91,0.00,,,0.00,0.0,WeatherDisplay:10.37,2013-09-10 09:32:00,
2013-09-10 02:37:00,55.3,52.7,29.72,NE,42,0.0,0.0,91,0.00,,,0.00,0.0,WeatherDisplay:10.37,2013-09-10 09:37:00,
2013-09-10 02:42:00,55.5,52.9,29.72,NE,42,0.0,0.0,91,0.00,,,0.00,0.0,WeatherDisplay:10.37,2013-09-10 09:42:00,
2013-09-10 02:47:00,55.5,52.9,29.72,NE,42,0.0,0.0,91,0.00,,,0.00,0.0,WeatherDisplay:10.37,2013-09-10 09:47:00,
2013-09-10 02:52:00,55.5,52.9,29.72,NE,42,0.0,0.0,91,0.00,,,0.00,0.0,WeatherDisplay:10.37,2013-09-10 09:52:00,
2013-09-10 02:57:00,55.3,52.7,29.72,NE,42,0.0,0.0,91,0.00,,,0.00,0.0,WeatherDisplay:10.37,2013-09-10 09:57:00,
2013-09-10 03:02:00,55.1,52.5,29.72,NE,42,0.0,0.0,91,0.00,,,0.00,0.0,WeatherDisplay:10.37,2013-09-10 10:02:00,
2013-09-10 03:07:00,55.0,52.4,29.72,NE,42,0.0,0.0,91,0.00,,,0.00,0.0,WeatherDisplay:10.37,2013-09-10 10:07:00,
2013-09-10 03:12:00,55.0,52.4,29.72,NE,42,0.0,0.0,91,0.00,,,0.00,0.0,WeatherDisplay:10.37,2013-09-10 10:12:00,
2013-09-10 03:17:00,55.0,52.7,29.72,NE,42,0.0,0.0,92,0.00,,,0.00,0.0,WeatherDisplay:10.37,2013-09-10 10:17:00,
2013-09-10 03:22:00,54.9,52.6,29.72,NE,42,0.0,0.0,92,0.00,,,0.00,0.0,WeatherDisplay:10.37,2013-09-10 10:22:00,
2013-09-10 03:27:00,54.8,52.5,29.72,NE,42,0.0,0.0,92,0.00,,,0.00,0.0,WeatherDisplay:10.37,2013-09-10 10:27:00,
2013-09-10 03:32:00,54.9,52.6,29.72,NE,42,0.0,0.0,92,0.00,,,0.00,0.0,WeatherDisplay:10.37,2013-09-10 10:32:00,
2013-09-10 03:37:00,54.8,52.5,29.72,NE,42,0.0,0.0,92,0.00,,,0.00,0.0,WeatherDisplay:10.37,2013-09-10 10:37:00,
2013-09-10 03:42:00,54.7,52.4,29.72,NE,42,0.0,0.0,92,0.00,,,0.00,0.0,WeatherDisplay:10.37,2013-09-10 10:42:00,
2013-09-10 03:47:00,54.6,52.3,29.72,NE,42,0.0,0.0,92,0.00,,,0.00,0.0,WeatherDisplay:10.37,2013-09-10 10:47:00,
2013-09-10 03:52:00,54.5,52.2,29.72,NE,42,0.0,0.0,92,0.00,,,0.00,0.0,WeatherDisplay:10.37,2013-09-10 10:52:00,
2013-09-10 03:57:00,54.3,52.0,29.73,NE,42,0.0,0.0,92,0.00,,,0.00,0.0,WeatherDisplay:10.37,2013-09-10 10:57:00,
2013-09-10 04:02:00,54.4,52.1,29.73,NE,42,0.0,0.0,92,0.00,,,0.00,0.0,WeatherDisplay:10.37,2013-09-10 11:02:00,
2013-09-10 04:07:00,54.5,52.2,29.73,NE,42,0.0,0.0,92,0.00,,,0.00,0.0,WeatherDisplay:10.37,2013-09-10 11:07:00,
2013-09-10 04:12:00,54.4,52.1,29.73,NE,42,0.0,0.0,92,0.00,,,0.00,0.0,WeatherDisplay:10.37,2013-09-10 11:12:00,
2013-09-10 04:17:00,54.3,52.0,29.73,NE,42,0.0,0.0,92,0.00,,,0.00,0.0,WeatherDisplay:10.37,2013-09-10 11:17:00,
2013-09-10 04:22:00,54.1,51.8,29.73,NE,42,0.0,0.0,92,0.00,,,0.00,0.0,WeatherDisplay:10.37,2013-09-10 11:22:00,
2013-09-10 04:27:00,54.0,51.7,29.73,NE,42,0.0,0.0,92,0.00,,,0.00,0.0,WeatherDisplay:10.37,2013-09-10 11:27:00,
2013-09-10 04:32:00,54.0,51.7,29.73,NE,42,0.0,0.0,92,0.00,,,0.00,0.0,WeatherDisplay:10.37,2013-09-10 11:32:00,
2013-09-10 04:37:00,53.9,51.6,29.73,NE,42,0.0,0.0,92,0.00,,,0.00,0.0,WeatherDisplay:10.37,2013-09-10 11:37:00,
2013-09-10 04:42:00,53.8,51.5,29.74,NE,42,0.0,0.0,92,0.00,,,0.00,0.0,WeatherDisplay:10.37,2013-09-10 11:42:00,
2013-09-10 04:47:00,53.9,51.9,29.74,NE,42,0.0,0.0,93,0.00,,,0.00,0.0,WeatherDisplay:10.37,2013-09-10 11:47:00,
2013-09-10 04:52:00,54.0,52.0,29.74,NE,42,0.0,0.0,93,0.00,,,0.00,0.0,WeatherDisplay:10.37,2013-09-10 11:52:00,
2013-09-10 04:57:00,53.9,51.9,29.73,NE,42,0.0,0.0,93,0.00,,,0.00,0.0,WeatherDisplay:10.37,2013-09-10 11:57:00,
2013-09-10 05:02:00,54.0,52.0,29.73,NE,42,0.0,0.0,93,0.00,,,0.00,0.0,WeatherDisplay:10.37,2013-09-10 12:02:00,
2013-09-10 05:07:00,54.0,52.0,29.73,NE,42,0.0,0.0,93,0.00,,,0.00,0.0,WeatherDisplay:10.37,2013-09-10 12:07:00,
2013-09-10 05:12:00,53.9,51.9,29.73,NE,42,0.0,0.0,93,0.00,,,0.00,0.0,WeatherDisplay:10.37,2013-09-10 12:12:00,
2013-09-10 05:17:00,53.7,51.7,29.73,NE,42,0.0,0.0,93,0.00,,,0.00,0.0,WeatherDisplay:10.37,2013-09-10 12:17:00,
2013-09-10 05:23:00,53.8,51.8,29.73,NE,42,0.0,0.0,93,0.00,,,0.00,0.0,WeatherDisplay:10.37,2013-09-10 12:23:00,
2013-09-10 05:28:00,53.7,51.7,29.73,NE,42,0.0,0.0,93,0.00,,,0.00,0.0,WeatherDisplay:10.37,2013-09-10 12:28:00,
2013-09-10 05:33:00,53.6,51.6,29.73,NE,42,0.0,0.0,93,0.00,,,0.00,0.0,WeatherDisplay:10.37,2013-09-10 12:33:00,
2013-09-10 05:38:00,53.6,51.6,29.73,NE,42,0.0,0.0,93,0.00,,,0.00,0.0,WeatherDisplay:10.37,2013-09-10 12:38:00,
2013-09-10 05:43:00,53.7,51.7,29.74,NE,42,0.0,0.0,93,0.00,,,0.00,0.0,WeatherDisplay:10.37,2013-09-10 12:43:00,
2013-09-10 05:48:00,54.1,52.1,29.74,NE,42,0.0,0.0,93,0.00,,,0.00,0.0,WeatherDisplay:10.37,2013-09-10 12:48:00,
2013-09-10 05:53:00,54.1,52.1,29.74,NE,42,0.0,0.0,93,0.00,,,0.00,0.0,WeatherDisplay:10.37,2013-09-10 12:53:00,
2013-09-10 05:58:00,54.4,52.4,29.74,NE,42,0.0,0.0,93,0.00,,,0.00,0.0,WeatherDisplay:10.37,2013-09-10 12:58:00,
2013-09-10 06:03:00,54.6,52.6,29.74,NE,42,0.0,0.0,93,0.00,,,0.00,0.0,WeatherDisplay:10.37,2013-09-10 13:03:00,
2013-09-10 06:08:00,54.5,52.5,29.75,NE,42,0.0,0.0,93,0.00,,,0.00,0.0,WeatherDisplay:10.37,2013-09-10 13:08:00,
2013-09-10 06:13:00,54.4,52.4,29.75,NE,42,0.0,0.0,93,0.00,,,0.00,0.0,WeatherDisplay:10.37,2013-09-10 13:13:00,
2013-09-10 06:18:00,54.2,52.2,29.74,NE,42,0.0,0.0,93,0.00,,,0.00,0.0,WeatherDisplay:10.37,2013-09-10 13:18:00,
2013-09-10 06:23:00,54.0,52.0,29.74,NE,42,0.0,0.0,93,0.00,,,0.00,0.0,WeatherDisplay:10.37,2013-09-10 13:23:00,
2013-09-10 06:28:00,53.8,51.8,29.75,NE,42,0.0,0.0,93,0.00,,,0.00,0.0,WeatherDisplay:10.37,2013-09-10 13:28:00,
2013-09-10 06:33:00,53.6,51.6,29.75,NE,42,0.0,0.0,93,0.00,,,0.00,0.0,WeatherDisplay:10.37,2013-09-10 13:33:00,
2013-09-10 06:38:00,53.5,51.5,29.75,NE,42,0.0,0.0,93,0.00,,,0.00,0.0,WeatherDisplay:10.37,2013-09-10 13:38:00,
2013-09-10 06:43:00,53.5,51.5,29.75,NE,42,0.0,0.0,93,0.00,,,0.00,0.0,WeatherDisplay:10.37,2013-09-10 13:43:00,
2013-09-10 06:48:00,53.5,51.5,29.75,NE,42,0.0,0.0,93,0.00,,,0.00,0.0,WeatherDisplay:10.37,2013-09-10 13:48:00,
2013-09-10 06:53:00,53.4,51.4,29.75,NE,42,0.0,0.0,93,0.00,,,0.00,5.0,WeatherDisplay:10.37,2013-09-10 13:53:00,
2013-09-10 06:58:00,53.7,52.0,29.76,NE,42,0.0,0.0,94,0.00,,,0.00,7.0,WeatherDisplay:10.37,2013-09-10 13:58:00,
2013-09-10 07:03:00,53.9,52.2,29.76,NE,42,0.0,0.0,94,0.00,,,0.00,9.0,WeatherDisplay:10.37,2013-09-10 14:03:00,
2013-09-10 07:08:00,54.0,52.0,29.76,NE,42,0.0,0.0,93,0.00,,,0.00,14.0,WeatherDisplay:10.37,2013-09-10 14:08:00,
2013-09-10 07:13:00,54.0,52.0,29.76,NE,42,0.0,0.0,93,0.00,,,0.00,21.0,WeatherDisplay:10.37,2013-09-10 14:13:00,
2013-09-10 07:18:00,54.3,52.6,29.76,NE,42,0.0,0.0,94,0.00,,,0.00,25.0,WeatherDisplay:10.37,2013-09-10 14:18:00,
2013-09-10 07:23:00,54.3,52.6,29.76,NE,42,0.0,0.0,94,0.00,,,0.00,30.0,WeatherDisplay:10.37,2013-09-10 14:23:00,
2013-09-10 07:28:00,54.6,52.9,29.76,NE,42,0.0,0.0,94,0.00,CLR,,0.00,32.0,WeatherDisplay:10.37,2013-09-10 14:28:00,
2013-09-10 07:33:00,55.3,53.6,29.77,SSW,202,2.2,3.5,94,0.00,CLR,,0.00,37.0,WeatherDisplay:10.37,2013-09-10 14:33:00,
2013-09-10 07:38:00,54.7,52.7,29.77,SSW,200,1.5,3.5,93,0.00,CLR,,0.00,51.0,WeatherDisplay:10.37,2013-09-10 14:38:00,
2013-09-10 07:43:00,54.6,52.6,29.77,SSW,200,0.0,1.2,93,0.00,CLR,,0.00,58.0,WeatherDisplay:10.37,2013-09-10 14:43:00,
2013-09-10 07:48:00,54.7,52.7,29.77,SSW,200,1.1,3.5,93,0.00,CLR,,0.00,56.0,WeatherDisplay:10.37,2013-09-10 14:48:00,
2013-09-10 07:53:00,55.1,53.1,29.77,SSW,200,0.4,3.5,93,0.00,CLR,,0.00,74.0,WeatherDisplay:10.37,2013-09-10 14:53:00,
2013-09-10 07:58:00,55.3,53.3,29.77,SSW,200,0.1,1.2,93,0.00,FEW,,0.00,63.0,WeatherDisplay:10.37,2013-09-10 14:58:00,
2013-09-10 08:03:00,55.4,53.4,29.78,SSW,200,0.3,2.3,93,0.00,FEW,,0.00,74.0,WeatherDisplay:10.37,2013-09-10 15:03:00,
2013-09-10 08:08:00,56.5,54.5,29.78,SSW,199,2.1,5.8,93,0.00,FEW,,0.00,77.0,WeatherDisplay:10.37,2013-09-10 15:08:00,
2013-09-10 08:13:00,57.0,54.7,29.78,SSE,158,0.5,3.5,92,0.00,FEW,,0.00,90.0,WeatherDisplay:10.37,2013-09-10 15:13:00,
2013-09-10 08:18:00,57.4,55.1,29.78,SW,233,4.7,10.4,92,0.00,SCT,,0.00,83.0,WeatherDisplay:10.37,2013-09-10 15:18:00,
2013-09-10 08:23:00,58.1,55.8,29.78,South,171,2.4,11.5,92,0.00,SCT,,0.00,84.0,WeatherDisplay:10.37,2013-09-10 15:23:00,
2013-09-10 08:28:00,58.4,55.8,29.78,SSW,195,7.1,10.4,91,0.00,BKN,,0.00,77.0,WeatherDisplay:10.37,2013-09-10 15:28:00,
2013-09-10 08:33:00,58.5,55.9,29.78,SSW,208,4.4,13.8,91,0.00,SCT,,0.00,88.0,WeatherDisplay:10.37,2013-09-10 15:33:00,
2013-09-10 08:38:00,58.6,56.0,29.78,SSW,195,4.3,5.8,91,0.00,BKN,,0.00,105.0,WeatherDisplay:10.37,2013-09-10 15:38:00,
2013-09-10 08:43:00,58.7,55.8,29.78,SSW,210,8.8,15.0,90,0.00,BKN,,0.00,111.0,WeatherDisplay:10.37,2013-09-10 15:43:00,
2013-09-10 08:48:00,58.8,55.9,29.78,SSW,196,4.8,6.9,90,0.00,BKN,,0.00,132.0,WeatherDisplay:10.37,2013-09-10 15:48:00,
2013-09-10 08:53:00,58.9,56.0,29.78,SSW,197,5.0,9.2,90,0.00,BKN,,0.00,97.0,WeatherDisplay:10.37,2013-09-10 15:53:00,
2013-09-10 08:58:00,58.9,56.0,29.78,SSW,200,3.6,5.8,90,0.00,FEW,,0.00,192.0,WeatherDisplay:10.37,2013-09-10 15:58:00,
2013-09-10 09:03:00,59.0,56.1,29.79,SSW,201,2.4,4.6,90,0.00,SCT,,0.00,156.0,WeatherDisplay:10.37,2013-09-10 16:03:00,
2013-09-10 09:08:00,59.4,56.2,29.79,South,188,7.5,12.7,89,0.00,CLR,,0.00,410.0,WeatherDisplay:10.37,2013-09-10 16:08:00,
2013-09-10 09:13:00,59.7,56.1,29.79,SSW,203,6.1,11.5,88,0.00,CLR,,0.00,381.0,WeatherDisplay:10.37,2013-09-10 16:13:00,
2013-09-10 09:18:00,60.2,56.3,29.79,SSW,196,7.4,13.8,87,0.00,CLR,,0.00,438.0,WeatherDisplay:10.37,2013-09-10 16:18:00,
2013-09-10 09:23:00,60.4,56.5,29.79,SSW,202,7.3,15.0,87,0.00,CLR,,0.00,373.0,WeatherDisplay:10.37,2013-09-10 16:23:00,
2013-09-10 09:28:00,60.4,56.2,29.79,SSW,200,5.7,11.5,86,0.00,CLR,,0.00,446.0,WeatherDisplay:10.37,2013-09-10 16:28:00,
2013-09-10 09:33:00,60.6,56.4,29.79,SSE,150,4.2,8.1,86,0.00,CLR,,0.00,422.0,WeatherDisplay:10.37,2013-09-10 16:33:00,
2013-09-10 09:38:00,60.7,56.5,29.79,SSW,210,6.6,10.4,86,0.00,CLR,,0.00,360.0,WeatherDisplay:10.37,2013-09-10 16:38:00,
2013-09-10 09:43:00,60.5,56.0,29.79,South,188,6.3,10.4,85,0.00,CLR,,0.00,396.0,WeatherDisplay:10.37,2013-09-10 16:43:00,
2013-09-10 09:48:00,60.4,56.2,29.79,SSW,199,9.7,17.3,86,0.00,SCT,,0.00,283.0,WeatherDisplay:10.37,2013-09-10 16:48:00,
2013-09-10 09:53:00,60.5,56.3,29.79,SSW,207,8.0,9.2,86,0.00,CLR,,0.00,573.0,WeatherDisplay:10.37,2013-09-10 16:53:00,
2013-09-10 09:58:00,60.6,56.1,29.79,SSW,205,11.0,19.6,85,0.00,CLR,,0.00,517.0,WeatherDisplay:10.37,2013-09-10 16:58:00,
2013-09-10 10:03:00,61.0,56.8,29.78,SSW,209,10.9,16.1,86,0.00,CLR,,0.00,585.0,WeatherDisplay:10.37,2013-09-10 17:03:00,
2013-09-10 10:08:00,61.0,56.5,29.78,SSW,206,14.4,18.4,85,0.00,CLR,,0.00,580.0,WeatherDisplay:10.37,2013-09-10 17:08:00,
2013-09-10 10:13:00,61.1,56.6,29.79,SW,227,12.5,18.4,85,0.00,CLR,,0.00,501.0,WeatherDisplay:10.37,2013-09-10 17:13:00,
2013-09-10 10:18:00,61.4,56.5,29.79,SSW,197,8.6,12.7,84,0.00,CLR,,0.00,621.0,WeatherDisplay:10.37,2013-09-10 17:18:00,
2013-09-10 10:23:00,61.4,56.5,29.79,South,190,10.5,17.0,84,0.00,CLR,,0.00,619.0,WeatherDisplay:10.37,2013-09-10 17:23:00,
2013-09-10 10:28:00,61.5,56.6,29.79,South,191,9.0,12.7,84,0.00,CLR,,0.00,640.0,WeatherDisplay:10.37,2013-09-10 17:28:00,
2013-09-10 10:33:00,61.5,56.6,29.79,South,191,9.0,11.5,84,0.00,CLR,,0.00,640.0,WeatherDisplay:10.37,2013-09-10 17:33:00,
2013-09-10 10:38:00,61.5,56.6,29.79,South,191,9.0,11.5,84,0.00,CLR,,0.00,640.0,WeatherDisplay:10.37,2013-09-10 17:38:00,
2013-09-10 10:43:00,61.5,56.6,29.79,South,191,9.0,11.5,84,0.00,CLR,,0.00,640.0,WeatherDisplay:10.37,2013-09-10 17:43:00,
2013-09-10 10:48:00,61.5,56.6,29.79,South,191,9.0,11.5,84,0.00,CLR,,0.00,640.0,WeatherDisplay:10.37,2013-09-10 17:48:00,
2013-09-10 10:53:00,61.5,56.6,29.79,South,191,9.0,11.5,84,0.00,CLR,,0.00,640.0,WeatherDisplay:10.37,2013-09-10 17:53:00,
2013-09-10 10:58:00,61.5,56.6,29.79,South,191,9.0,11.5,84,0.00,CLR,,0.00,640.0,WeatherDisplay:10.37,2013-09-10 17:58:00,
2013-09-10 11:03:00,62.5,56.9,29.79,SSW,196,11.2,17.3,82,0.00,CLR,,0.00,701.0,WeatherDisplay:10.37,2013-09-10 18:03:00,
2013-09-10 11:08:00,62.4,56.8,29.79,SSE,161,12.8,18.4,82,0.00,CLR,,0.00,714.0,WeatherDisplay:10.37,2013-09-10 18:08:00,
2013-09-10 11:13:00,62.6,57.0,29.79,South,191,13.6,18.4,82,0.00,CLR,,0.00,729.0,WeatherDisplay:10.37,2013-09-10 18:13:00,
2013-09-10 11:18:00,62.8,56.9,29.79,South,184,15.4,23.0,81,0.00,CLR,,0.00,738.0,WeatherDisplay:10.37,2013-09-10 18:18:00,
2013-09-10 11:23:00,62.6,56.7,29.80,SSW,194,16.7,21.9,81,0.00,CLR,,0.00,749.0,WeatherDisplay:10.37,2013-09-10 18:23:00,
2013-09-10 11:28:00,62.7,57.1,29.79,SSW,200,8.5,19.6,82,0.00,CLR,,0.00,759.0,WeatherDisplay:10.37,2013-09-10 18:28:00,
2013-09-10 11:33:00,62.9,57.3,29.79,SW,226,12.4,19.6,82,0.00,CLR,,0.00,765.0,WeatherDisplay:10.37,2013-09-10 18:33:00,
2013-09-10 11:38:00,62.8,57.2,29.80,South,189,18.0,21.0,82,0.00,CLR,,0.00,782.0,WeatherDisplay:10.37,2013-09-10 18:38:00,
2013-09-10 11:43:00,62.6,57.0,29.80,SSW,210,12.6,17.3,82,0.00,CLR,,0.00,791.0,WeatherDisplay:10.37,2013-09-10 18:43:00,
2013-09-10 11:48:00,62.6,57.0,29.80,SSW,193,15.3,25.3,82,0.00,CLR,,0.00,795.0,WeatherDisplay:10.37,2013-09-10 18:48:00,
2013-09-10 11:53:00,62.7,57.1,29.80,SSW,195,16.1,24.0,82,0.00,CLR,,0.00,807.0,WeatherDisplay:10.37,2013-09-10 18:53:00,
2013-09-10 11:58:00,62.9,57.3,29.80,South,191,16.0,20.7,82,0.00,CLR,,0.00,817.0,WeatherDisplay:10.37,2013-09-10 18:58:00,
2013-09-10 12:03:00,62.8,57.2,29.80,SSW,198,16.7,24.2,82,0.00,CLR,,0.00,798.0,WeatherDisplay:10.37,2013-09-10 19:03:00,
2013-09-10 12:08:00,62.7,57.5,29.80,SSW,196,16.8,24.2,83,0.00,CLR,,0.00,840.0,WeatherDisplay:10.37,2013-09-10 19:08:00,
2013-09-10 12:13:00,62.5,57.3,29.80,SSW,195,15.0,31.1,83,0.00,CLR,,0.00,851.0,WeatherDisplay:10.37,2013-09-10 19:13:00,
2013-09-10 12:18:00,62.4,57.5,29.80,SSW,213,15.0,19.6,84,0.00,CLR,,0.00,863.0,WeatherDisplay:10.37,2013-09-10 19:18:00,
2013-09-10 12:23:00,62.4,57.5,29.80,SSW,207,18.0,28.8,84,0.00,CLR,,0.00,847.0,WeatherDisplay:10.37,2013-09-10 19:23:00,
2013-09-10 12:28:00,62.7,57.8,29.80,South,186,16.5,26.5,84,0.00,CLR,,0.00,849.0,WeatherDisplay:10.37,2013-09-10 19:28:00,
2013-09-10 12:33:00,62.7,57.5,29.80,SSW,206,13.8,23.0,83,0.00,CLR,,0.00,842.0,WeatherDisplay:10.37,2013-09-10 19:33:00,
2013-09-10 12:38:00,63.0,57.8,29.80,SSW,211,16.8,28.8,83,0.00,CLR,,0.00,828.0,WeatherDisplay:10.37,2013-09-10 19:38:00,
2013-09-10 12:43:00,63.2,57.9,29.79,South,173,12.5,19.6,83,0.00,CLR,,0.00,810.0,WeatherDisplay:10.37,2013-09-10 19:43:00,
2013-09-10 12:48:00,63.1,57.9,29.79,SSW,204,18.8,21.9,83,0.00,CLR,,0.00,842.0,WeatherDisplay:10.37,2013-09-10 19:48:00,
2013-09-10 12:53:00,62.9,57.7,29.79,SSW,199,15.6,23.0,83,0.00,CLR,,0.00,826.0,WeatherDisplay:10.37,2013-09-10 19:53:00,
2013-09-10 12:58:00,62.9,57.7,29.79,SW,219,17.3,23.0,83,0.00,CLR,,0.00,868.0,WeatherDisplay:10.37,2013-09-10 19:58:00,
2013-09-10 13:03:00,63.3,58.0,29.80,South,185,13.3,24.2,83,0.00,FEW,,0.00,759.0,WeatherDisplay:10.37,2013-09-10 20:03:00,
2013-09-10 13:08:00,63.1,57.9,29.80,SSW,199,17.2,24.2,83,0.00,CLR,,0.00,849.0,WeatherDisplay:10.37,2013-09-10 20:08:00,
2013-09-10 13:13:00,63.1,57.9,29.79,South,188,18.7,24.2,83,0.00,CLR,,0.00,861.0,WeatherDisplay:10.37,2013-09-10 20:13:00,
2013-09-10 13:18:00,63.1,57.9,29.79,SSW,192,15.3,20.7,83,0.00,CLR,,0.00,868.0,WeatherDisplay:10.37,2013-09-10 20:18:00,
2013-09-10 13:23:00,63.3,57.7,29.79,SW,229,14.1,23.0,82,0.00,CLR,,0.00,865.0,WeatherDisplay:10.37,2013-09-10 20:23:00,
2013-09-10 13:28:00,63.4,58.1,29.80,South,183,11.1,19.6,83,0.00,CLR,,0.00,865.0,WeatherDisplay:10.37,2013-09-10 20:28:00,
2013-09-10 13:33:00,63.6,58.0,29.79,SSW,205,13.6,16.1,82,0.00,CLR,,0.00,861.0,WeatherDisplay:10.37,2013-09-10 20:33:00,
2013-09-10 13:38:00,63.7,58.1,29.79,SW,217,18.2,31.1,82,0.00,CLR,,0.00,803.0,WeatherDisplay:10.37,2013-09-10 20:38:00,
2013-09-10 13:43:00,63.3,57.7,29.80,SSW,197,15.8,20.7,82,0.00,CLR,,0.00,833.0,WeatherDisplay:10.37,2013-09-10 20:43:00,
2013-09-10 13:48:00,63.3,57.7,29.80,SSW,207,13.3,20.7,82,0.00,CLR,,0.00,828.0,WeatherDisplay:10.37,2013-09-10 20:48:00,
2013-09-10 13:53:00,63.1,57.5,29.80,SSW,196,15.7,27.6,82,0.00,CLR,,0.00,851.0,WeatherDisplay:10.37,2013-09-10 20:53:00,
2013-09-10 13:58:00,63.1,57.9,29.79,South,181,12.3,17.3,83,0.00,CLR,,0.00,835.0,WeatherDisplay:10.37,2013-09-10 20:58:00,
2013-09-10 14:03:00,63.3,57.7,29.80,SW,222,14.5,27.6,82,0.00,CLR,,0.00,821.0,WeatherDisplay:10.37,2013-09-10 21:03:00,
2013-09-10 14:08:00,63.2,57.6,29.80,SW,215,12.7,25.3,82,0.00,CLR,,0.00,831.0,WeatherDisplay:10.37,2013-09-10 21:08:00,
2013-09-10 14:13:00,63.2,57.9,29.80,SSW,207,11.8,17.3,83,0.00,CLR,,0.00,796.0,WeatherDisplay:10.37,2013-09-10 21:13:00,
2013-09-10 14:18:00,63.2,57.9,29.79,SW,219,11.2,18.4,83,0.00,CLR,,0.00,788.0,WeatherDisplay:10.37,2013-09-10 21:18:00,
2013-09-10 14:23:00,63.4,57.8,29.79,SSW,207,13.9,19.6,82,0.00,CLR,,0.00,791.0,WeatherDisplay:10.37,2013-09-10 21:23:00,
2013-09-10 14:28:00,63.4,57.8,29.79,SSW,200,16.5,19.6,82,0.00,CLR,,0.00,749.0,WeatherDisplay:10.37,2013-09-10 21:28:00,
2013-09-10 14:33:00,63.3,57.7,29.80,SSW,194,15.9,20.7,82,0.00,CLR,,0.00,728.0,WeatherDisplay:10.37,2013-09-10 21:33:00,
2013-09-10 14:38:00,63.3,58.0,29.80,NW,304,9.7,15.0,83,0.00,CLR,,0.00,798.0,WeatherDisplay:10.37,2013-09-10 21:38:00,
2013-09-10 14:43:00,63.4,57.8,29.80,South,186,18.7,26.5,82,0.00,CLR,,0.00,761.0,WeatherDisplay:10.37,2013-09-10 21:43:00,
2013-09-10 14:48:00,63.2,57.6,29.80,South,178,12.8,16.1,82,0.00,CLR,,0.00,800.0,WeatherDisplay:10.37,2013-09-10 21:48:00,
2013-09-10 14:53:00,63.1,57.9,29.80,South,190,11.6,19.6,83,0.00,CLR,,0.00,758.0,WeatherDisplay:10.37,2013-09-10 21:53:00,
2013-09-10 14:58:00,63.3,58.0,29.80,WSW,237,13.9,16.1,83,0.00,CLR,,0.00,779.0,WeatherDisplay:10.37,2013-09-10 21:58:00,
2013-09-10 15:03:00,63.1,57.9,29.80,SSW,213,10.3,20.7,83,0.00,CLR,,0.00,756.0,WeatherDisplay:10.37,2013-09-10 22:03:00,
2013-09-10 15:08:00,63.0,57.8,29.80,SSW,200,10.0,11.5,83,0.00,CLR,,0.00,744.0,WeatherDisplay:10.37,2013-09-10 22:08:00,
2013-09-10 15:13:00,63.0,57.8,29.81,SSW,192,12.8,23.0,83,0.00,CLR,,0.00,738.0,WeatherDisplay:10.37,2013-09-10 22:13:00,
2013-09-10 15:18:00,62.8,57.9,29.80,South,184,13.7,17.3,84,0.00,CLR,,0.00,708.0,WeatherDisplay:10.37,2013-09-10 22:18:00,
2013-09-10 15:23:00,62.8,57.9,29.80,South,178,15.7,17.3,84,0.00,CLR,,0.00,700.0,WeatherDisplay:10.37,2013-09-10 22:23:00,
2013-09-10 15:28:00,62.7,57.8,29.80,SSW,204,12.7,23.0,84,0.00,CLR,,0.00,708.0,WeatherDisplay:10.37,2013-09-10 22:28:00,
2013-09-10 15:33:00,62.5,57.6,29.80,South,173,11.5,17.3,84,0.00,SCT,,0.00,287.0,WeatherDisplay:10.37,2013-09-10 22:33:00,
2013-09-10 15:38:00,62.4,57.8,29.80,South,191,15.9,27.6,85,0.00,SCT,,0.00,628.0,WeatherDisplay:10.37,2013-09-10 22:38:00,
2013-09-10 15:43:00,62.7,57.8,29.80,South,178,11.0,19.6,84,0.00,FEW,,0.00,529.0,WeatherDisplay:10.37,2013-09-10 22:43:00,
2013-09-10 15:48:00,62.6,57.7,29.80,SSE,153,14.0,19.6,84,0.00,FEW,,0.00,568.0,WeatherDisplay:10.37,2013-09-10 22:48:00,
2013-09-10 15:53:00,62.3,57.4,29.80,SW,216,12.7,24.2,84,0.00,FEW,,0.00,585.0,WeatherDisplay:10.37,2013-09-10 22:53:00,
2013-09-10 15:58:00,62.2,57.6,29.80,SW,215,14.3,19.6,85,0.00,BKN,,0.00,281.0,WeatherDisplay:10.37,2013-09-10 22:58:00,
2013-09-10 16:03:00,62.1,57.5,29.80,South,187,9.2,20.7,85,0.00,BKN,,0.00,390.0,WeatherDisplay:10.37,2013-09-10 23:03:00,
2013-09-10 16:08:00,62.0,57.4,29.80,SSW,199,10.1,19.6,85,0.00,BKN,,0.00,290.0,WeatherDisplay:10.37,2013-09-10 23:08:00,
2013-09-10 16:13:00,61.9,57.3,29.80,SSW,198,13.3,16.1,85,0.00,FEW,,0.00,487.0,WeatherDisplay:10.37,2013-09-10 23:13:00,
2013-09-10 16:18:00,61.7,57.5,29.80,SSW,207,11.2,18.4,86,0.00,BKN,,0.00,230.0,WeatherDisplay:10.37,2013-09-10 23:18:00,
2013-09-10 16:23:00,61.6,57.4,29.80,South,172,7.6,18.4,86,0.00,BKN,,0.00,200.0,WeatherDisplay:10.37,2013-09-10 23:23:00,
2013-09-10 16:28:00,61.5,57.3,29.80,South,175,12.5,16.1,86,0.00,BKN,,0.00,230.0,WeatherDisplay:10.37,2013-09-10 23:28:00,
2013-09-10 16:33:00,61.4,57.2,29.80,SSW,202,13.0,17.3,86,0.00,BKN,,0.00,269.0,WeatherDisplay:10.37,2013-09-10 23:33:00,
2013-09-10 16:38:00,61.4,57.5,29.80,SW,219,10.7,18.4,87,0.00,BKN,,0.00,269.0,WeatherDisplay:10.37,2013-09-10 23:38:00,
2013-09-10 16:43:00,61.3,57.4,29.80,SW,223,10.9,12.7,87,0.00,BKN,,0.00,193.0,WeatherDisplay:10.37,2013-09-10 23:43:00,
2013-09-10 16:48:00,61.4,57.5,29.80,SSW,198,11.9,23.0,87,0.00,SCT,,0.00,311.0,WeatherDisplay:10.37,2013-09-10 23:48:00,
2013-09-10 16:53:00,61.5,57.6,29.80,SSW,212,9.6,12.7,87,0.00,BKN,,0.00,251.0,WeatherDisplay:10.37,2013-09-10 23:53:00,
2013-09-10 16:58:00,61.4,57.5,29.80,SSE,161,9.3,16.1,87,0.00,BKN,,0.00,190.0,WeatherDisplay:10.37,2013-09-10 23:58:00,
2013-09-10 17:03:00,61.3,57.4,29.80,South,190,9.8,19.6,87,0.00,BKN,,0.00,179.0,WeatherDisplay:10.37,2013-09-11 00:03:00,
2013-09-10 17:08:00,61.2,57.3,29.80,SSW,209,7.9,17.3,87,0.00,BKN,,0.00,195.0,WeatherDisplay:10.37,2013-09-11 00:08:00,
2013-09-10 17:13:00,61.1,57.2,29.80,SSW,199,10.1,18.4,87,0.00,BKN,,0.00,158.0,WeatherDisplay:10.37,2013-09-11 00:13:00,
2013-09-10 17:18:00,61.0,57.4,29.80,SSW,194,10.1,17.3,88,0.00,BKN,,0.00,155.0,WeatherDisplay:10.37,2013-09-11 00:18:00,
2013-09-10 17:23:00,60.9,57.3,29.81,South,190,9.2,13.8,88,0.00,BKN,,0.00,120.0,WeatherDisplay:10.37,2013-09-11 00:23:00,
2013-09-10 17:28:00,60.8,57.2,29.81,SSW,197,10.0,11.5,88,0.00,BKN,,0.00,127.0,WeatherDisplay:10.37,2013-09-11 00:28:00,
2013-09-10 17:33:00,60.9,57.3,29.81,South,190,10.8,11.5,88,0.00,BKN,,0.00,121.0,WeatherDisplay:10.37,2013-09-11 00:33:00,
2013-09-10 17:38:00,60.8,57.2,29.81,South,171,8.7,19.6,88,0.00,BKN,,0.00,120.0,WeatherDisplay:10.37,2013-09-11 00:38:00,
2013-09-10 17:43:00,60.7,57.1,29.81,South,184,10.8,21.9,88,0.00,BKN,,0.00,97.0,WeatherDisplay:10.37,2013-09-11 00:43:00,
2013-09-10 17:48:00,60.7,57.4,29.81,South,180,6.0,17.3,89,0.00,BKN,,0.00,139.0,WeatherDisplay:10.37,2013-09-11 00:48:00,
2013-09-10 17:53:00,60.7,57.4,29.81,South,186,8.2,18.4,89,0.00,BKN,,0.00,98.0,WeatherDisplay:10.37,2013-09-11 00:53:00,
2013-09-10 17:58:00,60.6,57.3,29.81,South,188,8.6,13.8,89,0.00,BKN,,0.00,84.0,WeatherDisplay:10.37,2013-09-11 00:58:00,
2013-09-10 18:03:00,60.6,57.3,29.81,SSW,199,9.9,15.0,89,0.00,BKN,,0.00,79.0,WeatherDisplay:10.37,2013-09-11 01:03:00,
2013-09-10 18:08:00,60.6,57.3,29.81,South,182,7.5,16.1,89,0.00,BKN,,0.00,74.0,WeatherDisplay:10.37,2013-09-11 01:08:00,
2013-09-10 18:13:00,60.6,57.3,29.81,SSW,211,4.7,7.0,89,0.00,BKN,,0.00,90.0,WeatherDisplay:10.37,2013-09-11 01:13:00,
2013-09-10 18:18:00,60.6,57.3,29.81,South,171,10.6,11.5,89,0.00,BKN,,0.00,65.0,WeatherDisplay:10.37,2013-09-11 01:18:00,
2013-09-10 18:23:00,60.6,57.3,29.81,SW,215,7.8,11.5,89,0.00,BKN,,0.00,72.0,WeatherDisplay:10.37,2013-09-11 01:23:00,
2013-09-10 18:28:00,60.6,57.3,29.81,South,182,7.9,11.5,89,0.00,BKN,,0.00,63.0,WeatherDisplay:10.37,2013-09-11 01:28:00,
2013-09-10 18:33:00,60.5,57.2,29.81,SSW,200,7.1,15.0,89,0.00,BKN,,0.00,62.0,WeatherDisplay:10.37,2013-09-11 01:33:00,
2013-09-10 18:38:00,60.5,57.2,29.81,South,188,10.6,18.4,89,0.00,BKN,,0.00,44.0,WeatherDisplay:10.37,2013-09-11 01:38:00,
2013-09-10 18:43:00,60.4,57.1,29.82,SSW,197,7.3,17.3,89,0.00,BKN,,0.00,39.0,WeatherDisplay:10.37,2013-09-11 01:43:00,
2013-09-10 18:48:00,60.3,57.0,29.81,SSW,193,8.8,16.1,89,0.00,BKN,,0.00,39.0,WeatherDisplay:10.37,2013-09-11 01:48:00,
2013-09-10 18:53:00,60.3,57.4,29.82,SSW,199,9.9,15.0,90,0.00,BKN,,0.00,26.0,WeatherDisplay:10.37,2013-09-11 01:53:00,
2013-09-10 18:58:00,60.2,57.3,29.82,South,190,8.5,13.8,90,0.00,BKN,,0.00,23.0,WeatherDisplay:10.37,2013-09-11 01:58:00,
2013-09-10 19:03:00,60.1,57.2,29.82,South,184,7.9,11.5,90,0.00,BKN,,0.00,21.0,WeatherDisplay:10.37,2013-09-11 02:03:00,
2013-09-10 19:08:00,60.1,57.2,29.82,SSW,213,10.8,13.8,90,0.00,BKN,,0.00,12.0,WeatherDisplay:10.37,2013-09-11 02:08:00,
2013-09-10 19:13:00,60.0,57.1,29.82,SSW,203,10.6,13.8,90,0.00,BKN,,0.00,9.0,WeatherDisplay:10.37,2013-09-11 02:13:00,
2013-09-10 19:18:00,60.0,57.1,29.82,South,190,8.8,11.5,90,0.00,BKN,,0.00,5.0,WeatherDisplay:10.37,2013-09-11 02:18:00,
2013-09-10 19:23:00,59.9,57.0,29.82,SSW,194,6.7,11.5,90,0.00,,,0.00,0.0,WeatherDisplay:10.37,2013-09-11 02:23:00,
2013-09-10 19:28:00,59.8,56.9,29.82,WSW,247,8.8,16.1,90,0.00,,,0.00,0.0,WeatherDisplay:10.37,2013-09-11 02:28:00,
2013-09-10 19:33:00,59.8,57.2,29.82,South,188,8.2,19.6,91,0.00,,,0.00,0.0,WeatherDisplay:10.37,2013-09-11 02:33:00,
2013-09-10 19:38:00,59.8,57.2,29.82,SSW,196,10.7,15.0,91,0.00,,,0.00,0.0,WeatherDisplay:10.37,2013-09-11 02:38:00,
2013-09-10 19:43:00,59.8,57.2,29.82,South,188,6.6,16.1,91,0.00,,,0.00,0.0,WeatherDisplay:10.37,2013-09-11 02:43:00,
2013-09-10 19:48:00,59.8,57.2,29.83,SSW,211,9.4,13.0,91,0.00,,,0.00,0.0,WeatherDisplay:10.37,2013-09-11 02:48:00,
2013-09-10 19:53:00,59.8,57.2,29.83,SSW,201,10.7,14.0,91,0.00,,,0.00,0.0,WeatherDisplay:10.37,2013-09-11 02:53:00,
2013-09-10 19:58:00,59.8,57.2,29.83,South,183,8.2,11.5,91,0.00,,,0.00,0.0,WeatherDisplay:10.37,2013-09-11 02:58:00,
2013-09-10 20:03:00,59.8,57.2,29.83,South,186,8.0,11.5,91,0.00,,,0.00,0.0,WeatherDisplay:10.37,2013-09-11 03:03:00,
2013-09-10 20:08:00,59.8,57.2,29.84,SSW,198,8.3,13.8,91,0.00,,,0.00,0.0,WeatherDisplay:10.37,2013-09-11 03:08:00,
2013-09-10 20:13:00,59.8,57.2,29.83,WNW,295,5.4,8.1,91,0.00,,,0.00,0.0,WeatherDisplay:10.37,2013-09-11 03:13:00,
2013-09-10 20:18:00,59.9,57.3,29.83,NW,305,3.6,8.1,91,0.00,,,0.00,0.0,WeatherDisplay:10.37,2013-09-11 03:18:00,
2013-09-10 20:23:00,59.9,57.3,29.84,South,178,5.4,9.2,91,0.00,,,0.00,0.0,WeatherDisplay:10.37,2013-09-11 03:23:00,
2013-09-10 20:28:00,59.9,57.3,29.84,SSW,194,6.9,13.8,91,0.00,,,0.00,0.0,WeatherDisplay:10.37,2013-09-11 03:28:00,
2013-09-10 20:33:00,60.0,57.4,29.84,South,186,6.6,10.4,91,0.00,,,0.00,0.0,WeatherDisplay:10.37,2013-09-11 03:33:00,
2013-09-10 20:38:00,60.0,57.4,29.84,SSW,199,9.8,11.5,91,0.00,,,0.00,0.0,WeatherDisplay:10.37,2013-09-11 03:38:00,
2013-09-10 20:43:00,60.0,57.4,29.84,South,191,5.1,9.2,91,0.00,,,0.00,0.0,WeatherDisplay:10.37,2013-09-11 03:43:00,
2013-09-10 20:48:00,60.1,57.5,29.85,SSW,196,4.5,6.9,91,0.00,,,0.00,0.0,WeatherDisplay:10.37,2013-09-11 03:48:00,
2013-09-10 20:53:00,60.1,57.5,29.85,South,188,3.4,8.1,91,0.00,,,0.00,0.0,WeatherDisplay:10.37,2013-09-11 03:53:00,
2013-09-10 20:58:00,60.1,57.5,29.85,SSW,205,4.1,9.2,91,0.00,,,0.00,0.0,WeatherDisplay:10.37,2013-09-11 03:58:00,
2013-09-10 21:01:00,60.1,57.5,29.85,WNW,283,3.6,5.8,91,0.00,,,0.00,0.0,WeatherDisplay:10.37,2013-09-11 04:01:00,
2013-09-10 21:06:00,60.0,57.4,29.85,SSW,202,7.0,12.0,91,0.00,,,0.00,0.0,WeatherDisplay:10.37,2013-09-11 04:06:00,
2013-09-10 21:08:00,60.0,57.4,29.85,SSW,196,6.0,8.1,91,0.00,,,0.00,0.0,WeatherDisplay:10.37,2013-09-11 04:08:00,
2013-09-10 21:12:00,60.0,57.4,29.85,SSW,195,8.9,16.1,91,0.00,,,0.00,0.0,WeatherDisplay:10.37,2013-09-11 04:12:00,
2013-09-10 21:14:00,60.0,57.4,29.86,SSW,196,6.9,9.2,91,0.00,,,0.00,0.0,WeatherDisplay:10.37,2013-09-11 04:14:00,
2013-09-10 21:19:00,59.9,57.3,29.86,SE,138,4.7,10.4,91,0.00,,,0.00,0.0,WeatherDisplay:10.37,2013-09-11 04:19:00,
2013-09-10 21:24:00,60.0,57.4,29.86,South,187,4.5,10.4,91,0.00,,,0.00,0.0,WeatherDisplay:10.37,2013-09-11 04:24:00,
2013-09-10 21:29:00,60.0,57.4,29.86,SSW,202,5.0,6.9,91,0.00,,,0.00,0.0,WeatherDisplay:10.37,2013-09-11 04:29:00,
2013-09-10 21:34:00,60.1,57.5,29.86,South,183,2.6,3.5,91,0.00,,,0.00,0.0,WeatherDisplay:10.37,2013-09-11 04:34:00,
2013-09-10 21:39:00,60.1,57.5,29.86,West,269,1.8,3.5,91,0.00,,,0.00,0.0,WeatherDisplay:10.37,2013-09-11 04:39:00,
2013-09-10 21:44:00,60.2,57.6,29.86,SSW,194,3.8,7.0,91,0.00,,,0.00,0.0,WeatherDisplay:10.37,2013-09-11 04:44:00,
2013-09-10 21:49:00,60.1,57.5,29.86,SSE,165,1.7,3.5,91,0.00,,,0.00,0.0,WeatherDisplay:10.37,2013-09-11 04:49:00,
2013-09-10 21:54:00,60.1,57.5,29.86,SSE,168,2.2,4.6,91,0.00,,,0.00,0.0,WeatherDisplay:10.37,2013-09-11 04:54:00,
2013-09-10 21:59:00,60.1,57.5,29.87,SSE,164,1.1,3.5,91,0.00,,,0.00,0.0,WeatherDisplay:10.37,2013-09-11 04:59:00,
2013-09-10 22:04:00,60.0,57.4,29.87,South,190,0.0,1.2,91,0.00,,,0.00,0.0,WeatherDisplay:10.37,2013-09-11 05:04:00,
2013-09-10 22:09:00,59.9,57.3,29.87,South,189,0.7,4.6,91,0.00,,,0.00,0.0,WeatherDisplay:10.37,2013-09-11 05:09:00,
2013-09-10 22:14:00,60.0,57.4,29.87,South,191,2.3,2.3,91,0.00,,,0.00,0.0,WeatherDisplay:10.37,2013-09-11 05:14:00,
2013-09-10 22:19:00,60.0,57.4,29.87,SSW,208,2.9,4.6,91,0.00,,,0.00,0.0,WeatherDisplay:10.37,2013-09-11 05:19:00,
2013-09-10 22:24:00,60.1,57.5,29.87,SSW,192,2.7,3.5,91,0.00,,,0.00,0.0,WeatherDisplay:10.37,2013-09-11 05:24:00,
2013-09-10 22:29:00,60.1,57.5,29.87,SSW,192,0.4,3.5,91,0.00,,,0.00,0.0,WeatherDisplay:10.37,2013-09-11 05:29:00,
2013-09-10 22:34:00,60.1,57.5,29.87,SSW,207,2.1,3.0,91,0.00,,,0.00,0.0,WeatherDisplay:10.37,2013-09-11 05:34:00,
2013-09-10 22:39:00,60.1,57.5,29.87,SSW,202,0.0,0.0,91,0.00,,,0.00,0.0,WeatherDisplay:10.37,2013-09-11 05:39:00,
2013-09-10 22:44:00,60.2,57.6,29.87,SSW,202,1.8,3.5,91,0.00,,,0.00,0.0,WeatherDisplay:10.37,2013-09-11 05:44:00,
2013-09-10 22:49:00,60.2,57.6,29.87,SSW,208,1.1,3.5,91,0.00,,,0.00,0.0,WeatherDisplay:10.37,2013-09-11 05:49:00,
2013-09-10 22:54:00,60.2,57.6,29.88,SSE,167,6.1,11.5,91,0.00,,,0.00,0.0,WeatherDisplay:10.37,2013-09-11 05:54:00,
2013-09-10 22:59:00,60.2,57.6,29.87,SSW,210,2.1,4.0,91,0.00,,,0.00,0.0,WeatherDisplay:10.37,2013-09-11 05:59:00,
2013-09-10 23:04:00,60.2,57.3,29.88,SSW,192,2.0,3.5,90,0.00,,,0.00,0.0,WeatherDisplay:10.37,2013-09-11 06:04:00,
2013-09-10 23:09:00,60.3,57.7,29.88,SSW,211,6.0,11.5,91,0.00,,,0.00,0.0,WeatherDisplay:10.37,2013-09-11 06:09:00,
2013-09-10 23:14:00,60.3,57.4,29.88,South,191,3.3,5.8,90,0.00,,,0.00,0.0,WeatherDisplay:10.37,2013-09-11 06:14:00,
2013-09-10 23:19:00,60.3,57.4,29.87,SSW,192,4.8,11.5,90,0.00,,,0.00,0.0,WeatherDisplay:10.37,2013-09-11 06:19:00,
2013-09-10 23:24:00,60.3,57.4,29.87,SSW,197,0.0,4.6,90,0.00,,,0.00,0.0,WeatherDisplay:10.37,2013-09-11 06:24:00,
2013-09-10 23:29:00,60.3,57.4,29.87,ESE,117,1.4,3.5,90,0.00,,,0.00,0.0,WeatherDisplay:10.37,2013-09-11 06:29:00,
2013-09-10 23:34:00,60.4,57.5,29.87,ESE,115,1.3,3.5,90,0.00,,,0.00,0.0,WeatherDisplay:10.37,2013-09-11 06:34:00,
2013-09-10 23:39:00,60.4,57.5,29.87,ESE,114,1.3,2.3,90,0.00,,,0.00,0.0,WeatherDisplay:10.37,2013-09-11 06:39:00,
2013-09-10 23:44:00,60.5,57.6,29.87,South,170,3.3,4.0,90,0.00,,,0.00,0.0,WeatherDisplay:10.37,2013-09-11 06:44:00,
2013-09-10 23:49:00,60.4,57.5,29.87,South,169,2.8,5.8,90,0.00,,,0.00,0.0,WeatherDisplay:10.37,2013-09-11 06:49:00,
2013-09-10 23:54:00,60.4,57.5,29.87,SSW,193,5.5,6.9,90,0.00,,,0.00,0.0,WeatherDisplay:10.37,2013-09-11 06:54:00,
2013-09-10 23:59:00,60.5,57.6,29.87,WNW,282,2.5,8.1,90,0.00,,,0.00,0.0,WeatherDisplay:10.37,2013-09-11 06:59:00,